sensor_id;sensor_type;location;lat;lon;timestamp;pressure;altitude;pressure_sealevel;temperature;humidity
64644;BME280;51056;50.330;7.914;2023-04-30T00:02:51;101204.81;;;10.50;90.46
64644;BME280;51056;50.330;7.914;2023-04-30T00:05:54;101199.59;;;10.50;90.71
64644;BME280;51056;50.330;7.914;2023-04-30T00:08:57;101197.75;;;10.52;90.74
64644;BME280;51056;50.330;7.914;2023-04-30T00:12:01;101192.53;;;10.52;90.40
64644;BME280;51056;50.330;7.914;2023-04-30T00:15:04;101187.28;;;10.52;90.37
64644;BME280;51056;50.330;7.914;2023-04-30T00:18:08;101192.53;;;10.52;90.25
64644;BME280;51056;50.330;7.914;2023-04-30T00:21:12;101193.50;;;10.50;90.67
64644;BME280;51056;50.330;7.914;2023-04-30T00:24:15;101190.88;;;10.50;90.84
64644;BME280;51056;50.330;7.914;2023-04-30T00:27:18;101192.66;;;10.49;90.45
64644;BME280;51056;50.330;7.914;2023-04-30T00:30:21;101195.22;;;10.51;90.49
64644;BME280;51056;50.330;7.914;2023-04-30T00:33:23;101189.97;;;10.51;90.51
64644;BME280;51056;50.330;7.914;2023-04-30T00:36:26;101193.50;;;10.50;90.64
64644;BME280;51056;50.330;7.914;2023-04-30T00:39:29;101197.09;;;10.47;90.64
64644;BME280;51056;50.330;7.914;2023-04-30T00:42:32;101193.69;;;10.45;90.72
64644;BME280;51056;50.330;7.914;2023-04-30T00:45:35;101199.03;;;10.42;91.25
64644;BME280;51056;50.330;7.914;2023-04-30T00:48:38;101193.78;;;10.43;91.33
64644;BME280;51056;50.330;7.914;2023-04-30T00:51:41;101197.22;;;10.44;91.32
64644;BME280;51056;50.330;7.914;2023-04-30T00:54:44;101195.47;;;10.44;91.28
64644;BME280;51056;50.330;7.914;2023-04-30T00:57:48;101204.22;;;10.43;91.48
64644;BME280;51056;50.330;7.914;2023-04-30T01:00:51;101203.34;;;10.43;91.34
64644;BME280;51056;50.330;7.914;2023-04-30T01:03:54;101205.13;;;10.42;90.92
64644;BME280;51056;50.330;7.914;2023-04-30T01:06:58;101199.13;;;10.40;91.18
64644;BME280;51056;50.330;7.914;2023-04-30T01:10:02;101207.84;;;10.39;91.32
64644;BME280;51056;50.330;7.914;2023-04-30T01:16:24;101204.41;;;10.39;91.38
64644;BME280;51056;50.330;7.914;2023-04-30T01:19:41;101201.78;;;10.39;91.65
64644;BME280;51056;50.330;7.914;2023-04-30T01:22:45;101207.97;;;10.36;91.65
64644;BME280;51056;50.330;7.914;2023-04-30T01:29:01;101203.81;;;10.32;91.86
64644;BME280;51056;50.330;7.914;2023-04-30T01:32:05;101198.66;;;10.31;91.74
64644;BME280;51056;50.330;7.914;2023-04-30T01:35:08;101199.50;;;10.31;92.05
64644;BME280;51056;50.330;7.914;2023-04-30T01:47:38;101199.72;;;10.25;91.99
64644;BME280;51056;50.330;7.914;2023-04-30T01:50:50;101198.09;;;10.21;91.36
64644;BME280;51056;50.330;7.914;2023-04-30T01:53:56;101211.25;;;10.19;90.78
64644;BME280;51056;50.330;7.914;2023-04-30T01:57:02;101207.91;;;10.16;90.54
64644;BME280;51056;50.330;7.914;2023-04-30T02:00:07;101206.56;;;10.06;90.25
64644;BME280;51056;50.330;7.914;2023-04-30T02:03:16;101212.81;;;10.01;90.48
64644;BME280;51056;50.330;7.914;2023-04-30T02:06:20;101215.53;;;9.98;90.16
64644;BME280;51056;50.330;7.914;2023-04-30T02:09:23;101214.03;;;9.93;90.45
64644;BME280;51056;50.330;7.914;2023-04-30T02:12:26;101221.91;;;9.91;90.44
64644;BME280;51056;50.330;7.914;2023-04-30T02:15:31;101219.41;;;9.88;90.29
64644;BME280;51056;50.330;7.914;2023-04-30T02:18:35;101224.72;;;9.87;90.28
64644;BME280;51056;50.330;7.914;2023-04-30T02:21:38;101229.22;;;9.83;90.27
64644;BME280;51056;50.330;7.914;2023-04-30T02:24:41;101232.78;;;9.81;90.03
64644;BME280;51056;50.330;7.914;2023-04-30T02:27:44;101227.69;;;9.77;89.74
64644;BME280;51056;50.330;7.914;2023-04-30T02:30:47;101227.72;;;9.76;90.08
64644;BME280;51056;50.330;7.914;2023-04-30T02:33:52;101223.41;;;9.75;90.57
64644;BME280;51056;50.330;7.914;2023-04-30T02:36:55;101232.09;;;9.75;90.51
64644;BME280;51056;50.330;7.914;2023-04-30T02:39:58;101227.84;;;9.73;90.59
64644;BME280;51056;50.330;7.914;2023-04-30T02:43:02;101225.09;;;9.76;90.78
64644;BME280;51056;50.330;7.914;2023-04-30T02:46:05;101230.22;;;9.79;91.22
64644;BME280;51056;50.330;7.914;2023-04-30T02:49:08;101238.06;;;9.79;91.35
64644;BME280;51056;50.330;7.914;2023-04-30T02:52:11;101227.84;;;9.73;91.43
64644;BME280;51056;50.330;7.914;2023-04-30T02:55:14;101224.38;;;9.72;92.01
64644;BME280;51056;50.330;7.914;2023-04-30T02:58:18;101223.59;;;9.70;92.06
64644;BME280;51056;50.330;7.914;2023-04-30T03:01:21;101227.19;;;9.68;91.84
64644;BME280;51056;50.330;7.914;2023-04-30T03:04:24;101233.53;;;9.61;92.02
64644;BME280;51056;50.330;7.914;2023-04-30T03:07:28;101234.50;;;9.58;91.98
64644;BME280;51056;50.330;7.914;2023-04-30T03:10:31;101231.38;;;9.48;92.81
64644;BME280;51056;50.330;7.914;2023-04-30T03:13:34;101240.09;;;9.47;93.17
64644;BME280;51056;50.330;7.914;2023-04-30T03:16:37;101239.19;;;9.48;93.89
64644;BME280;51056;50.330;7.914;2023-04-30T03:19:40;101244.44;;;9.48;94.33
64644;BME280;51056;50.330;7.914;2023-04-30T03:22:45;101240.91;;;9.49;94.16
64644;BME280;51056;50.330;7.914;2023-04-30T03:25:48;101235.69;;;9.49;93.88
64644;BME280;51056;50.330;7.914;2023-04-30T03:28:51;101237.44;;;9.49;93.61
64644;BME280;51056;50.330;7.914;2023-04-30T03:31:54;101241.00;;;9.46;93.62
64644;BME280;51056;50.330;7.914;2023-04-30T03:34:57;101228.88;;;9.45;93.86
64644;BME280;51056;50.330;7.914;2023-04-30T03:38:02;101236.75;;;9.44;93.79
64644;BME280;51056;50.330;7.914;2023-04-30T03:41:06;101237.59;;;9.44;93.63
64644;BME280;51056;50.330;7.914;2023-04-30T03:44:10;101232.53;;;9.40;93.29
64644;BME280;51056;50.330;7.914;2023-04-30T03:47:17;101231.00;;;9.34;92.94
64644;BME280;51056;50.330;7.914;2023-04-30T03:50:20;101230.16;;;9.34;93.16
64644;BME280;51056;50.330;7.914;2023-04-30T03:53:22;101234.53;;;9.33;92.65
64644;BME280;51056;50.330;7.914;2023-04-30T03:56:27;101230.25;;;9.30;92.35
64644;BME280;51056;50.330;7.914;2023-04-30T03:59:31;101236.75;;;9.19;92.37
64644;BME280;51056;50.330;7.914;2023-04-30T04:02:34;101234.97;;;9.21;92.64
64644;BME280;51056;50.330;7.914;2023-04-30T04:05:37;101238.47;;;9.20;92.43
64644;BME280;51056;50.330;7.914;2023-04-30T04:08:41;101228.09;;;9.18;92.15
64644;BME280;51056;50.330;7.914;2023-04-30T04:11:47;101237.94;;;9.10;92.04
64644;BME280;51056;50.330;7.914;2023-04-30T04:14:50;101239.81;;;9.06;92.49
64644;BME280;51056;50.330;7.914;2023-04-30T04:17:54;101238.31;;;8.99;92.11
64644;BME280;51056;50.330;7.914;2023-04-30T04:20:58;101241.00;;;8.96;92.25
64644;BME280;51056;50.330;7.914;2023-04-30T04:24:00;101245.38;;;8.96;92.32
64644;BME280;51056;50.330;7.914;2023-04-30T04:27:10;101250.03;;;8.88;92.05
64644;BME280;51056;50.330;7.914;2023-04-30T04:30:13;101250.06;;;8.86;92.11
64644;BME280;51056;50.330;7.914;2023-04-30T04:33:16;101250.06;;;8.86;92.03
64644;BME280;51056;50.330;7.914;2023-04-30T04:36:20;101250.91;;;8.87;91.63
64644;BME280;51056;50.330;7.914;2023-04-30T04:39:25;101258.16;;;8.78;91.44
64644;BME280;51056;50.330;7.914;2023-04-30T04:42:28;101258.81;;;8.58;92.11
64644;BME280;51056;50.330;7.914;2023-04-30T04:45:31;101257.19;;;8.54;92.59
64644;BME280;51056;50.330;7.914;2023-04-30T04:48:36;101267.22;;;8.67;93.09
64644;BME280;51056;50.330;7.914;2023-04-30T04:51:39;101271.38;;;8.72;92.35
64644;BME280;51056;50.330;7.914;2023-04-30T04:54:43;101269.72;;;8.70;92.20
64644;BME280;51056;50.330;7.914;2023-04-30T04:57:47;101271.69;;;8.63;92.56
64644;BME280;51056;50.330;7.914;2023-04-30T05:00:50;101278.56;;;8.66;92.35
64644;BME280;51056;50.330;7.914;2023-04-30T05:03:53;101280.22;;;8.68;92.64
64644;BME280;51056;50.330;7.914;2023-04-30T05:06:56;101282.66;;;8.73;92.45
64644;BME280;51056;50.330;7.914;2023-04-30T05:09:59;101283.72;;;8.67;92.57
64644;BME280;51056;50.330;7.914;2023-04-30T05:13:02;101288.06;;;8.40;94.46
64644;BME280;51056;50.330;7.914;2023-04-30T05:16:05;101287.41;;;8.32;95.64
64644;BME280;51056;50.330;7.914;2023-04-30T05:19:09;101289.66;;;8.44;95.25
64644;BME280;51056;50.330;7.914;2023-04-30T05:22:12;101286.47;;;8.63;94.48
64644;BME280;51056;50.330;7.914;2023-04-30T05:25:16;101291.25;;;8.76;93.79
64644;BME280;51056;50.330;7.914;2023-04-30T05:28:18;101290.38;;;8.76;92.83
64644;BME280;51056;50.330;7.914;2023-04-30T05:31:21;101285.94;;;8.51;93.53
64644;BME280;51056;50.330;7.914;2023-04-30T05:34:25;101280.63;;;8.54;93.72
64644;BME280;51056;50.330;7.914;2023-04-30T05:37:27;101280.75;;;8.51;93.80
64644;BME280;51056;50.330;7.914;2023-04-30T05:40:31;101285.09;;;8.51;94.00
64644;BME280;51056;50.330;7.914;2023-04-30T05:43:33;101297.34;;;8.49;93.74
64644;BME280;51056;50.330;7.914;2023-04-30T05:50:13;101287.31;;;8.35;94.57
64644;BME280;51056;50.330;7.914;2023-04-30T05:53:16;101290.94;;;8.29;95.24
64644;BME280;51056;50.330;7.914;2023-04-30T05:56:24;101291.25;;;8.48;94.94
64644;BME280;51056;50.330;7.914;2023-04-30T05:59:32;101290.13;;;8.57;94.20
64644;BME280;51056;50.330;7.914;2023-04-30T06:02:36;101291.59;;;8.66;93.31
64644;BME280;51056;50.330;7.914;2023-04-30T06:05:48;101292.00;;;8.80;93.12
64644;BME280;51056;50.330;7.914;2023-04-30T06:09:13;101288.94;;;8.94;92.81
64644;BME280;51056;50.330;7.914;2023-04-30T06:16:08;101289.50;;;9.03;92.23
64644;BME280;51056;50.330;7.914;2023-04-30T06:19:14;101279.84;;;9.05;92.32
64644;BME280;51056;50.330;7.914;2023-04-30T06:22:18;101288.47;;;9.07;92.57
64644;BME280;51056;50.330;7.914;2023-04-30T06:25:21;101280.66;;;9.07;92.58
64644;BME280;51056;50.330;7.914;2023-04-30T06:28:25;101283.72;;;9.19;91.79
64644;BME280;51056;50.330;7.914;2023-04-30T06:31:29;101277.41;;;9.26;91.84
64644;BME280;51056;50.330;7.914;2023-04-30T06:34:33;101276.88;;;9.41;91.27
64644;BME280;51056;50.330;7.914;2023-04-30T06:37:37;101282.56;;;9.52;89.36
64644;BME280;51056;50.330;7.914;2023-04-30T06:40:40;101273.59;;;9.60;88.30
64644;BME280;51056;50.330;7.914;2023-04-30T06:43:43;101275.09;;;9.67;86.98
64644;BME280;51056;50.330;7.914;2023-04-30T06:46:47;101277.41;;;9.74;87.29
64644;BME280;51056;50.330;7.914;2023-04-30T06:49:49;101275.31;;;9.84;86.40
64644;BME280;51056;50.330;7.914;2023-04-30T06:52:52;101279.63;;;9.85;85.06
64644;BME280;51056;50.330;7.914;2023-04-30T06:55:55;101279.56;;;9.87;84.53
64644;BME280;51056;50.330;7.914;2023-04-30T06:58:58;101276.63;;;9.96;84.56
64644;BME280;51056;50.330;7.914;2023-04-30T07:02:01;101281.44;;;10.07;83.27
64644;BME280;51056;50.330;7.914;2023-04-30T07:05:05;101274.41;;;10.09;82.28
64644;BME280;51056;50.330;7.914;2023-04-30T07:08:08;101271.44;;;10.18;82.92
64644;BME280;51056;50.330;7.914;2023-04-30T07:11:13;101267.81;;;10.20;79.84
64644;BME280;51056;50.330;7.914;2023-04-30T07:14:16;101260.56;;;10.29;80.86
64644;BME280;51056;50.330;7.914;2023-04-30T07:17:19;101266.34;;;10.37;80.12
64644;BME280;51056;50.330;7.914;2023-04-30T07:20:22;101261.75;;;10.43;80.39
64644;BME280;51056;50.330;7.914;2023-04-30T07:23:26;101265.00;;;10.48;78.86
64644;BME280;51056;50.330;7.914;2023-04-30T07:26:29;101258.25;;;10.43;77.38
64644;BME280;51056;50.330;7.914;2023-04-30T07:29:32;101254.56;;;10.48;77.61
64644;BME280;51056;50.330;7.914;2023-04-30T07:32:35;101255.84;;;10.60;77.96
64644;BME280;51056;50.330;7.914;2023-04-30T07:35:39;101260.50;;;10.74;77.88
64644;BME280;51056;50.330;7.914;2023-04-30T07:38:43;101256.66;;;10.83;77.61
64644;BME280;51056;50.330;7.914;2023-04-30T07:41:46;101247.94;;;10.82;74.65
64644;BME280;51056;50.330;7.914;2023-04-30T07:44:52;101254.16;;;10.80;75.01
64644;BME280;51056;50.330;7.914;2023-04-30T07:47:55;101243.22;;;10.90;75.77
64644;BME280;51056;50.330;7.914;2023-04-30T07:50:58;101243.66;;;11.02;75.85
64644;BME280;51056;50.330;7.914;2023-04-30T07:54:01;101250.97;;;11.14;74.54
64644;BME280;51056;50.330;7.914;2023-04-30T07:57:05;101247.81;;;11.26;75.58
64644;BME280;51056;50.330;7.914;2023-04-30T08:00:09;101240.47;;;11.34;74.47
64644;BME280;51056;50.330;7.914;2023-04-30T08:03:18;101242.03;;;11.38;73.77
64644;BME280;51056;50.330;7.914;2023-04-30T08:06:21;101249.44;;;11.49;74.82
64644;BME280;51056;50.330;7.914;2023-04-30T08:09:25;101234.16;;;11.59;73.89
64644;BME280;51056;50.330;7.914;2023-04-30T08:12:31;101245.97;;;11.68;73.73
64644;BME280;51056;50.330;7.914;2023-04-30T08:16:31;101243.81;;;11.77;73.11
64644;BME280;51056;50.330;7.914;2023-04-30T08:19:34;101239.13;;;11.84;73.06
64644;BME280;51056;50.330;7.914;2023-04-30T08:22:37;101242.19;;;11.94;72.08
64644;BME280;51056;50.330;7.914;2023-04-30T08:26:01;101238.44;;;11.99;70.34
64644;BME280;51056;50.330;7.914;2023-04-30T08:29:04;101243.38;;;12.05;70.24
64644;BME280;51056;50.330;7.914;2023-04-30T08:32:07;101235.78;;;12.18;70.66
64644;BME280;51056;50.330;7.914;2023-04-30T08:35:11;101231.81;;;12.28;69.08
64644;BME280;51056;50.330;7.914;2023-04-30T08:38:14;101228.69;;;12.39;68.36
64644;BME280;51056;50.330;7.914;2023-04-30T08:41:17;101230.31;;;12.42;68.64
64644;BME280;51056;50.330;7.914;2023-04-30T08:44:22;101221.50;;;12.43;65.95
64644;BME280;51056;50.330;7.914;2023-04-30T08:47:26;101226.16;;;12.72;71.22
64644;BME280;51056;50.330;7.914;2023-04-30T08:50:30;101227.84;;;12.91;66.36
64644;BME280;51056;50.330;7.914;2023-04-30T08:53:33;101224.97;;;12.95;65.64
64644;BME280;51056;50.330;7.914;2023-04-30T08:56:37;101230.47;;;12.91;65.58
64644;BME280;51056;50.330;7.914;2023-04-30T08:59:43;101223.28;;;12.94;64.63
64644;BME280;51056;50.330;7.914;2023-04-30T09:02:47;101232.78;;;12.97;63.92
64644;BME280;51056;50.330;7.914;2023-04-30T09:05:51;101237.94;;;12.98;62.09
64644;BME280;51056;50.330;7.914;2023-04-30T09:08:55;101223.97;;;12.98;62.03
64644;BME280;51056;50.330;7.914;2023-04-30T09:15:16;101217.88;;;13.15;58.91
64644;BME280;51056;50.330;7.914;2023-04-30T09:18:18;101221.19;;;13.18;59.27
64644;BME280;51056;50.330;7.914;2023-04-30T09:21:32;101219.66;;;13.32;60.03
64644;BME280;51056;50.330;7.914;2023-04-30T09:24:45;101212.97;;;13.42;59.37
64644;BME280;51056;50.330;7.914;2023-04-30T09:28:05;101209.25;;;13.46;57.45
64644;BME280;51056;50.330;7.914;2023-04-30T09:31:17;101201.50;;;13.60;56.02
64644;BME280;51056;50.330;7.914;2023-04-30T09:34:24;101199.81;;;13.59;56.45
64644;BME280;51056;50.330;7.914;2023-04-30T09:37:38;101201.00;;;13.69;56.37
64644;BME280;51056;50.330;7.914;2023-04-30T09:40:41;101195.06;;;13.82;56.37
64644;BME280;51056;50.330;7.914;2023-04-30T09:43:44;101191.00;;;13.92;55.47
64644;BME280;51056;50.330;7.914;2023-04-30T09:46:48;101191.50;;;13.99;55.03
64644;BME280;51056;50.330;7.914;2023-04-30T09:49:52;101184.88;;;14.07;53.49
64644;BME280;51056;50.330;7.914;2023-04-30T09:53:03;101179.63;;;14.07;53.55
64644;BME280;51056;50.330;7.914;2023-04-30T09:56:07;101176.63;;;14.13;52.62
64644;BME280;51056;50.330;7.914;2023-04-30T09:59:10;101175.00;;;14.27;52.52
64644;BME280;51056;50.330;7.914;2023-04-30T10:02:15;101178.81;;;14.37;51.19
64644;BME280;51056;50.330;7.914;2023-04-30T10:05:19;101174.19;;;14.40;52.13
64644;BME280;51056;50.330;7.914;2023-04-30T10:08:25;101170.38;;;14.46;51.05
64644;BME280;51056;50.330;7.914;2023-04-30T10:11:29;101169.88;;;14.55;51.07
64644;BME280;51056;50.330;7.914;2023-04-30T10:14:34;101175.69;;;14.60;50.57
64644;BME280;51056;50.330;7.914;2023-04-30T10:17:38;101159.72;;;14.63;50.91
64644;BME280;51056;50.330;7.914;2023-04-30T10:20:46;101167.09;;;14.73;49.43
64644;BME280;51056;50.330;7.914;2023-04-30T10:23:50;101158.59;;;14.68;47.87
64644;BME280;51056;50.330;7.914;2023-04-30T10:26:54;101156.28;;;14.77;49.22
64644;BME280;51056;50.330;7.914;2023-04-30T10:29:59;101152.78;;;14.77;48.89
64644;BME280;51056;50.330;7.914;2023-04-30T10:36:25;101133.06;;;14.84;46.49
64644;BME280;51056;50.330;7.914;2023-04-30T10:39:32;101141.91;;;14.83;46.50
64644;BME280;51056;50.330;7.914;2023-04-30T10:42:36;101128.75;;;14.97;45.87
64644;BME280;51056;50.330;7.914;2023-04-30T10:45:41;101126.84;;;14.99;46.61
64644;BME280;51056;50.330;7.914;2023-04-30T10:48:45;101130.34;;;15.14;48.24
64644;BME280;51056;50.330;7.914;2023-04-30T10:51:49;101124.22;;;15.28;47.08
64644;BME280;51056;50.330;7.914;2023-04-30T10:54:53;101124.47;;;15.38;47.10
64644;BME280;51056;50.330;7.914;2023-04-30T10:57:59;101118.28;;;15.39;46.89
64644;BME280;51056;50.330;7.914;2023-04-30T11:01:03;101125.16;;;15.41;46.82
64644;BME280;51056;50.330;7.914;2023-04-30T11:04:08;101113.09;;;15.51;46.23
64644;BME280;51056;50.330;7.914;2023-04-30T11:07:12;101109.50;;;15.52;46.26
64644;BME280;51056;50.330;7.914;2023-04-30T11:10:15;101108.44;;;15.69;47.40
64644;BME280;51056;50.330;7.914;2023-04-30T11:13:19;101103.63;;;15.76;45.04
64644;BME280;51056;50.330;7.914;2023-04-30T11:16:27;101103.78;;;15.87;46.39
64644;BME280;51056;50.330;7.914;2023-04-30T11:19:30;101100.19;;;15.88;44.71
64644;BME280;51056;50.330;7.914;2023-04-30T11:22:36;101091.75;;;15.83;44.73
64644;BME280;51056;50.330;7.914;2023-04-30T11:25:44;101087.97;;;15.87;44.80
64644;BME280;51056;50.330;7.914;2023-04-30T11:28:50;101083.16;;;16.07;45.15
64644;BME280;51056;50.330;7.914;2023-04-30T11:31:55;101086.16;;;16.15;44.19
64644;BME280;51056;50.330;7.914;2023-04-30T11:34:58;101079.50;;;16.22;44.18
64644;BME280;51056;50.330;7.914;2023-04-30T11:38:01;101070.34;;;16.27;43.74
64644;BME280;51056;50.330;7.914;2023-04-30T11:41:06;101063.97;;;16.30;44.20
64644;BME280;51056;50.330;7.914;2023-04-30T11:44:21;101064.66;;;16.46;44.90
64644;BME280;51056;50.330;7.914;2023-04-30T11:47:25;101063.28;;;16.54;44.53
64644;BME280;51056;50.330;7.914;2023-04-30T11:50:31;101060.22;;;16.60;44.67
64644;BME280;51056;50.330;7.914;2023-04-30T11:53:35;101052.72;;;16.66;44.96
64644;BME280;51056;50.330;7.914;2023-04-30T11:56:38;101054.50;;;16.66;42.88
64644;BME280;51056;50.330;7.914;2023-04-30T11:59:42;101056.19;;;16.67;43.51
64644;BME280;51056;50.330;7.914;2023-04-30T12:02:46;101060.22;;;16.60;42.09
64644;BME280;51056;50.330;7.914;2023-04-30T12:05:50;101047.31;;;16.68;42.87
64644;BME280;51056;50.330;7.914;2023-04-30T12:08:53;101048.72;;;16.86;43.33
64644;BME280;51056;50.330;7.914;2023-04-30T12:11:56;101044.25;;;17.00;43.91
64644;BME280;51056;50.330;7.914;2023-04-30T12:15:09;101040.09;;;17.08;42.88
64644;BME280;51056;50.330;7.914;2023-04-30T12:18:12;101036.38;;;17.24;42.92
64644;BME280;51056;50.330;7.914;2023-04-30T12:21:17;101036.03;;;17.28;42.39
64644;BME280;51056;50.330;7.914;2023-04-30T12:24:20;101037.03;;;17.38;42.51
64644;BME280;51056;50.330;7.914;2023-04-30T12:27:25;101035.31;;;17.50;42.46
64644;BME280;51056;50.330;7.914;2023-04-30T12:30:29;101037.69;;;17.66;42.51
64644;BME280;51056;50.330;7.914;2023-04-30T12:33:32;101039.44;;;17.78;42.01
64644;BME280;51056;50.330;7.914;2023-04-30T12:36:35;101032.28;;;17.92;40.88
64644;BME280;51056;50.330;7.914;2023-04-30T12:39:39;101026.69;;;18.19;41.33
64644;BME280;51056;50.330;7.914;2023-04-30T12:42:42;101030.44;;;18.27;39.88
64644;BME280;51056;50.330;7.914;2023-04-30T12:45:49;101017.00;;;18.42;41.69
64644;BME280;51056;50.330;7.914;2023-04-30T12:48:53;101014.00;;;18.57;40.59
64644;BME280;51056;50.330;7.914;2023-04-30T12:52:00;101018.09;;;18.73;40.70
64644;BME280;51056;50.330;7.914;2023-04-30T12:55:17;101008.13;;;18.76;39.96
64644;BME280;51056;50.330;7.914;2023-04-30T12:58:21;101004.88;;;18.95;40.29
64644;BME280;51056;50.330;7.914;2023-04-30T13:01:25;101001.94;;;19.10;39.38
64644;BME280;51056;50.330;7.914;2023-04-30T13:04:28;100997.66;;;19.29;38.95
64644;BME280;51056;50.330;7.914;2023-04-30T13:07:37;100991.63;;;19.39;38.66
64644;BME280;51056;50.330;7.914;2023-04-30T13:10:42;100993.44;;;19.70;39.34
64644;BME280;51056;50.330;7.914;2023-04-30T13:13:45;100985.88;;;19.87;38.38
64644;BME280;51056;50.330;7.914;2023-04-30T13:16:48;100977.41;;;20.14;37.99
64644;BME280;51056;50.330;7.914;2023-04-30T13:19:52;100985.66;;;20.41;37.55
64644;BME280;51056;50.330;7.914;2023-04-30T13:22:54;100972.81;;;20.47;36.65
64644;BME280;51056;50.330;7.914;2023-04-30T13:25:57;100972.50;;;20.40;35.30
64644;BME280;51056;50.330;7.914;2023-04-30T13:29:01;100970.19;;;20.77;35.91
64644;BME280;51056;50.330;7.914;2023-04-30T13:32:06;100964.50;;;21.21;35.15
64644;BME280;51056;50.330;7.914;2023-04-30T13:35:10;100965.53;;;21.39;34.75
64644;BME280;51056;50.330;7.914;2023-04-30T13:38:14;100959.34;;;21.09;33.65
64644;BME280;51056;50.330;7.914;2023-04-30T13:41:17;100950.69;;;21.66;35.33
64644;BME280;51056;50.330;7.914;2023-04-30T13:44:20;100950.53;;;22.43;33.29
64644;BME280;51056;50.330;7.914;2023-04-30T13:47:23;100940.75;;;22.89;32.38
64644;BME280;51056;50.330;7.914;2023-04-30T13:50:26;100945.88;;;23.54;31.74
64644;BME280;51056;50.330;7.914;2023-04-30T13:53:29;100939.16;;;23.86;30.67
64644;BME280;51056;50.330;7.914;2023-04-30T13:56:32;100932.66;;;24.14;29.52
64644;BME280;51056;50.330;7.914;2023-04-30T13:59:36;100924.38;;;25.35;27.95
64644;BME280;51056;50.330;7.914;2023-04-30T14:02:40;100925.28;;;27.26;25.92
64644;BME280;51056;50.330;7.914;2023-04-30T14:05:43;100911.41;;;29.36;22.50
64644;BME280;51056;50.330;7.914;2023-04-30T14:08:47;100909.88;;;31.67;20.35
64644;BME280;51056;50.330;7.914;2023-04-30T14:11:50;100904.44;;;31.94;20.10
64644;BME280;51056;50.330;7.914;2023-04-30T14:14:53;100913.72;;;32.76;18.56
64644;BME280;51056;50.330;7.914;2023-04-30T14:17:57;100893.31;;;32.29;18.44
64644;BME280;51056;50.330;7.914;2023-04-30T14:21:00;100902.19;;;31.64;19.07
64644;BME280;51056;50.330;7.914;2023-04-30T14:24:06;100898.00;;;31.95;18.79
64644;BME280;51056;50.330;7.914;2023-04-30T14:27:09;100905.25;;;31.01;20.16
64644;BME280;51056;50.330;7.914;2023-04-30T14:30:13;100895.09;;;30.35;19.73
64644;BME280;51056;50.330;7.914;2023-04-30T14:33:16;100894.09;;;31.38;19.84
64644;BME280;51056;50.330;7.914;2023-04-30T14:36:19;100897.38;;;31.07;20.16
64644;BME280;51056;50.330;7.914;2023-04-30T14:39:22;100886.44;;;32.33;19.68
64644;BME280;51056;50.330;7.914;2023-04-30T14:42:26;100880.63;;;32.29;18.74
64644;BME280;51056;50.330;7.914;2023-04-30T14:45:29;100875.81;;;31.33;18.54
64644;BME280;51056;50.330;7.914;2023-04-30T14:48:33;100871.81;;;30.96;19.53
64644;BME280;51056;50.330;7.914;2023-04-30T14:51:36;100865.44;;;30.01;20.90
64644;BME280;51056;50.330;7.914;2023-04-30T14:54:40;100861.28;;;31.34;19.87
64644;BME280;51056;50.330;7.914;2023-04-30T14:57:43;100862.41;;;32.56;19.14
64644;BME280;51056;50.330;7.914;2023-04-30T15:00:46;100853.94;;;32.46;18.28
64644;BME280;51056;50.330;7.914;2023-04-30T15:03:50;100851.09;;;33.54;17.67
64644;BME280;51056;50.330;7.914;2023-04-30T15:06:59;100847.38;;;33.24;18.01
64644;BME280;51056;50.330;7.914;2023-04-30T15:10:07;100839.09;;;32.87;18.07
64644;BME280;51056;50.330;7.914;2023-04-30T15:13:12;100838.72;;;32.45;18.61
64644;BME280;51056;50.330;7.914;2023-04-30T15:16:16;100837.53;;;31.69;18.90
64644;BME280;51056;50.330;7.914;2023-04-30T15:19:20;100830.53;;;32.13;18.89
64644;BME280;51056;50.330;7.914;2023-04-30T15:22:29;100831.50;;;32.26;18.30
64644;BME280;51056;50.330;7.914;2023-04-30T15:25:32;100830.59;;;32.45;17.83
64644;BME280;51056;50.330;7.914;2023-04-30T15:28:36;100828.56;;;32.34;18.18
64644;BME280;51056;50.330;7.914;2023-04-30T15:31:39;100831.81;;;30.45;18.84
64644;BME280;51056;50.330;7.914;2023-04-30T15:34:42;100830.53;;;29.93;19.56
64644;BME280;51056;50.330;7.914;2023-04-30T15:37:45;100822.94;;;30.64;19.42
64644;BME280;51056;50.330;7.914;2023-04-30T15:40:48;100816.13;;;29.72;19.86
64644;BME280;51056;50.330;7.914;2023-04-30T15:43:51;100812.47;;;29.24;20.50
64644;BME280;51056;50.330;7.914;2023-04-30T15:46:54;100812.94;;;29.06;21.03
64644;BME280;51056;50.330;7.914;2023-04-30T15:49:59;100820.28;;;29.47;19.89
64644;BME280;51056;50.330;7.914;2023-04-30T15:53:03;100816.00;;;28.09;21.64
64644;BME280;51056;50.330;7.914;2023-04-30T15:56:07;100821.69;;;27.17;22.69
64644;BME280;51056;50.330;7.914;2023-04-30T15:59:11;100810.94;;;26.71;22.87
64644;BME280;51056;50.330;7.914;2023-04-30T16:02:18;100823.91;;;27.05;23.88
64644;BME280;51056;50.330;7.914;2023-04-30T16:05:21;100810.16;;;27.75;23.12
64644;BME280;51056;50.330;7.914;2023-04-30T16:08:25;100809.97;;;27.32;23.20
64644;BME280;51056;50.330;7.914;2023-04-30T16:11:29;100816.38;;;25.84;24.70
64644;BME280;51056;50.330;7.914;2023-04-30T16:14:32;100816.47;;;25.35;24.87
64644;BME280;51056;50.330;7.914;2023-04-30T16:17:35;100812.63;;;24.80;26.50
64644;BME280;51056;50.330;7.914;2023-04-30T16:20:39;100807.41;;;24.62;26.57
64644;BME280;51056;50.330;7.914;2023-04-30T16:23:44;100800.63;;;24.25;27.28
64644;BME280;51056;50.330;7.914;2023-04-30T16:26:47;100806.81;;;23.92;27.88
64644;BME280;51056;50.330;7.914;2023-04-30T16:29:51;100798.41;;;23.78;27.73
64644;BME280;51056;50.330;7.914;2023-04-30T16:32:55;100799.16;;;23.36;28.39
64644;BME280;51056;50.330;7.914;2023-04-30T16:35:58;100792.97;;;23.36;29.08
64644;BME280;51056;50.330;7.914;2023-04-30T16:39:09;100793.56;;;23.04;29.24